Map

Track Data

SID SEASON NUMBER BASIN SUBBASIN NAME ISO_TIME NATURE LAT LON WMO_WIND WMO_PRES WMO_AGENCY TRACK_TYPE DIST2LAND LANDFALL IFLAG USA_AGENCY USA_ATCF_ID USA_LAT USA_LON USA_RECORD USA_STATUS USA_WIND USA_PRES USA_SSHS USA_R34_NE USA_R34_SE USA_R34_SW USA_R34_NW USA_R50_NE USA_R50_SE USA_R50_SW USA_R50_NW USA_R64_NE USA_R64_SE USA_R64_SW USA_R64_NW USA_POCI USA_ROCI USA_RMW USA_EYE TOKYO_LAT TOKYO_LON TOKYO_GRADE TOKYO_WIND TOKYO_PRES TOKYO_R50_DIR TOKYO_R50_LONG TOKYO_R50_SHORT TOKYO_R30_DIR TOKYO_R30_LONG TOKYO_R30_SHORT TOKYO_LAND CMA_LAT CMA_LON CMA_CAT CMA_WIND CMA_PRES HKO_LAT HKO_LON HKO_CAT HKO_WIND HKO_PRES NEWDELHI_LAT NEWDELHI_LON NEWDELHI_GRADE NEWDELHI_WIND NEWDELHI_PRES NEWDELHI_CI NEWDELHI_DP NEWDELHI_POCI REUNION_LAT REUNION_LON REUNION_TYPE REUNION_WIND REUNION_PRES REUNION_TNUM REUNION_CI REUNION_RMW REUNION_R34_NE REUNION_R34_SE REUNION_R34_SW REUNION_R34_NW REUNION_R50_NE REUNION_R50_SE REUNION_R50_SW REUNION_R50_NW REUNION_R64_NE REUNION_R64_SE REUNION_R64_SW REUNION_R64_NW BOM_LAT BOM_LON BOM_TYPE BOM_WIND BOM_PRES BOM_TNUM BOM_CI BOM_RMW BOM_R34_NE BOM_R34_SE BOM_R34_SW BOM_R34_NW BOM_R50_NE BOM_R50_SE BOM_R50_SW BOM_R50_NW BOM_R64_NE BOM_R64_SE BOM_R64_SW BOM_R64_NW BOM_ROCI BOM_POCI BOM_EYE BOM_POS_METHOD BOM_PRES_METHOD NADI_LAT NADI_LON NADI_CAT NADI_WIND NADI_PRES WELLINGTON_LAT WELLINGTON_LON WELLINGTON_WIND WELLINGTON_PRES DS824_LAT DS824_LON DS824_STAGE DS824_WIND DS824_PRES TD9636_LAT TD9636_LON TD9636_STAGE TD9636_WIND TD9636_PRES TD9635_LAT TD9635_LON TD9635_WIND TD9635_PRES TD9635_ROCI NEUMANN_LAT NEUMANN_LON NEUMANN_CLASS NEUMANN_WIND NEUMANN_PRES MLC_LAT MLC_LON MLC_CLASS MLC_WIND MLC_PRES USA_GUST BOM_GUST BOM_GUST_PER REUNION_GUST REUNION_GUST_PER USA_SEAHGT USA_SEARAD_NE USA_SEARAD_SE USA_SEARAD_SW USA_SEARAD_NW STORM_SPEED STORM_DIR
2000099S28037 2000 24 SI MM NOT_NAMED 2000-04-07 12:00:00 SS -27.7000 36.5000 20 1012 reunion main 363 363 _____O________ -1 -27.7000 36.5000 7 20 1012 9.90000 4 104
2000099S28037 2000 24 SI MM NOT_NAMED 2000-04-07 15:00:00 SS -27.7476 36.7125 main 381 381 _____P________ -1 -27.7476 36.7125 7 20 1012 4 106
2000099S28037 2000 24 SI MM NOT_NAMED 2000-04-07 18:00:00 SS -27.8000 36.9000 20 1012 reunion main 399 399 _____O________ -1 -27.8000 36.9000 7 20 1012 9.90000 3 109
2000099S28037 2000 24 SI MM NOT_NAMED 2000-04-07 21:00:00 SS -27.8450 37.0375 main 404 404 _____P________ -1 -27.8450 37.0375 7 20 1012 2 90
2000099S28037 2000 24 SI MM NOT_NAMED 2000-04-08 00:00:00 SS -27.8000 37.1000 20 1012 reunion main 409 390 _____O________ -1 -27.8000 37.1000 7 20 1012 9.90000 3 6
2000099S28037 2000 24 SI MM NOT_NAMED 2000-04-08 03:00:00 SS -27.5725 37.0724 main 390 356 _____P________ -1 -27.5725 37.0724 7 20 1012 5 350
2000099S28037 2000 24 SI MM NOT_NAMED 2000-04-08 06:00:00 SS -27.3000 37.0000 20 1012 reunion main 356 337 _____O________ -1 -27.3000 37.0000 7 20 1012 9.90000 5 346
2000099S28037 2000 24 SI MM NOT_NAMED 2000-04-08 09:00:00 SS -27.1350 36.9500 main 337 322 _____P________ -1 -27.1350 36.9500 7 22 1011 3 344
2000099S28037 2000 24 SI MM NOT_NAMED 2000-04-08 12:00:00 SS -27.0000 36.9000 25 1010 reunion main 322 308 _____O________ -1 -27.0000 36.9000 7 25 1010 9.90000 3 341
2000099S28037 2000 24 SI MM NOT_NAMED 2000-04-08 15:00:00 SS -26.8575 36.8425 main 308 289 _____P________ -1 -26.8575 36.8425 7 25 1010 3 344
2000099S28037 2000 24 SI MM NOT_NAMED 2000-04-08 18:00:00 SS -26.7000 36.8000 25 1010 reunion main 289 272 _____O________ -1 -26.7000 36.8000 7 25 1010 9.90000 4 353
2000099S28037 2000 24 SI MM NOT_NAMED 2000-04-08 21:00:00 SS -26.5000 36.8001 main 272 255 _____P________ -1 -26.5000 36.8001 7 22 1010 4 0
2000099S28037 2000 24 SI MM NOT_NAMED 2000-04-09 00:00:00 SS -26.3000 36.8000 20 1010 reunion main 255 247 _____O________ -1 -26.3000 36.8000 7 20 1010 9.90000 3 353
2000099S28037 2000 24 SI MM NOT_NAMED 2000-04-09 03:00:00 SS -26.1575 36.7575 main 247 224 _____P________ -1 -26.1575 36.7575 7 20 1010 3 344
2000099S28037 2000 24 SI MM NOT_NAMED 2000-04-09 06:00:00 SS -26.0000 36.7000 20 1010 reunion main 224 194 _____O________ -1 -26.0000 36.7000 7 20 1010 9.90000 4 343
2000099S28037 2000 24 SI MM NOT_NAMED 2000-04-09 09:00:00 SS -25.7350 36.6124 main 194 181 _____P________ -1 -25.7350 36.6124 7 20 1010 5 350
2000099S28037 2000 24 SI MM NOT_NAMED 2000-04-09 12:00:00 SS -25.5000 36.6000 20 1010 reunion main 181 175 _____O________ -1 -25.5000 36.6000 7 20 1010 9.90000 3 22
2000099S28037 2000 24 SI MM NOT_NAMED 2000-04-09 15:00:00 SS -25.4200 36.7550 main 193 193 _____P________ -1 -25.4200 36.7550 7 20 1010 4 74
2000099S28037 2000 24 SI MM NOT_NAMED 2000-04-09 18:00:00 SS -25.4000 37.0000 20 1010 reunion main 209 209 _____O________ -1 -25.4000 37.0000 7 20 1010 9.90000 5 84
2000099S28037 2000 24 SI MM NOT_NAMED 2000-04-09 21:00:00 SS -25.3726 37.2574 main 232 232 _____P________ -1 -25.3726 37.2574 7 22 1010 5 77
2000099S28037 2000 24 SI MM NOT_NAMED 2000-04-10 00:00:00 SS -25.3000 37.5000 25 1010 reunion main 242 242 _____O________ -1 -25.3000 37.5000 7 25 1010 9.90000 5 58
2000099S28037 2000 24 SI MM NOT_NAMED 2000-04-10 03:00:00 SS -25.1300 37.6876 main 248 244 _____P________ -1 -25.1300 37.6876 7 25 1010 5 34
2000099S28037 2000 24 SI MM NOT_NAMED 2000-04-10 06:00:00 SS -24.9000 37.8000 25 1010 reunion main 249 242 _____O________ -1 -24.9000 37.8000 7 25 1010 9.90000 5 16
2000099S28037 2000 24 SI MM NOT_NAMED 2000-04-10 09:00:00 SS -24.6425 37.8450 main 239 235 _____P________ -1 -24.6425 37.8450 7 25 1009 5 2
2000099S28037 2000 24 SI MM NOT_NAMED 2000-04-10 12:00:00 SS -24.4000 37.8000 25 1008 reunion main 235 223 _____O________ -1 -24.4000 37.8000 7 25 1008 9.90000 4 341
2000099S28037 2000 24 SI MM NOT_NAMED 2000-04-10 15:00:00 SS -24.2350 37.6875 main 223 202 _____P________ -1 -24.2350 37.6875 7 25 1008 4 318
2000099S28037 2000 24 SI MM NOT_NAMED 2000-04-10 18:00:00 SS -24.1000 37.5000 25 1008 reunion main 202 182 _____O________ -1 -24.1000 37.5000 7 25 1008 9.90000 5 306
2000099S28037 2000 24 SI MM NOT_NAMED 2000-04-10 21:00:00 SS -23.9500 37.2650 main 182 152 _____P________ -1 -23.9500 37.2650 7 25 1008 5 303
2000099S28037 2000 24 SI MM NOT_NAMED 2000-04-11 00:00:00 SS -23.8000 37.0000 25 1008 reunion main 152 126 _____O________ -1 -23.8000 37.0000 7 25 1008 9.90000 6 304
2000099S28037 2000 24 SI MM NOT_NAMED 2000-04-11 03:00:00 SS -23.6275 36.7349 main 126 107 _____P________ -1 -23.6275 36.7349 7 25 1008 5 303
2000099S28037 2000 24 SI MM NOT_NAMED 2000-04-11 06:00:00 SS -23.5000 36.5000 25 1008 reunion main 107 88 _____O________ -1 -23.5000 36.5000 7 25 1008 9.90000 4 293
2000099S28037 2000 24 SI MM NOT_NAMED 2000-04-11 09:00:00 SS -23.4700 36.3201 main 88 78 _____P________ -1 -23.4700 36.3201 7 27 1006 3 270
2000099S28037 2000 24 SI MM NOT_NAMED 2000-04-11 12:00:00 SS -23.5000 36.2000 30 1005 reunion main 78 69 _____O________ -1 -23.5000 36.2000 7 30 1005 9.90000 2 243
2000099S28037 2000 24 SI MM NOT_NAMED 2000-04-11 15:00:00 SS -23.5575 36.1350 main 69 69 _____P________ -1 -23.5575 36.1350 7 32 1004 1 220
2000099S28037 2000 24 SI MM NOT_NAMED 2000-04-11 18:00:00 SS -23.6000 36.1000 35 1003 reunion main 69 60 _____O________ -1 -23.6000 36.1000 7 35 1003 9.90000 1 265
2000099S28037 2000 24 SI MM NOT_NAMED 2000-04-11 21:00:00 SS -23.5650 36.0425 main 60 60 _____P________ -1 -23.5650 36.0425 7 37 1001 1 320
2000099S28037 2000 24 SI MM NOT_NAMED 2000-04-12 00:00:00 SS -23.5000 36.0000 40 1000 reunion main 61 55 _____O________ -1 -23.5000 36.0000 7 40 1000 9.90000 1 345
2000099S28037 2000 24 SI MM NOT_NAMED 2000-04-12 03:00:00 SS -23.4275 35.9925 main 55 55 _____P________ -1 -23.4275 35.9925 7 42 998 1 0
2000099S28037 2000 24 SI MM NOT_NAMED 2000-04-12 06:00:00 SS -23.4000 36.0000 45 996 reunion main 55 55 _____O________ -1 -23.4000 36.0000 7 45 996 9.90000 1 198
2000099S28037 2000 24 SI MM NOT_NAMED 2000-04-12 09:00:00 SS -23.4925 35.9850 main 61 60 _____P________ -1 -23.4925 35.9850 7 47 994 2 172
2000099S28037 2000 24 SI MM NOT_NAMED 2000-04-12 12:00:00 SS -23.6000 36.0000 50 992 reunion main 60 60 _____O________ -1 -23.6000 36.0000 7 50 992 9.90000 1 137
2000099S28037 2000 24 SI MM NOT_NAMED 2000-04-12 15:00:00 SS -23.5925 36.0925 main 69 69 _____P________ -1 -23.5925 36.0925 7 50 992 2 90
2000099S28037 2000 24 SI MM NOT_NAMED 2000-04-12 18:00:00 SS -23.6000 36.2000 50 992 reunion main 78 74 _____O________ -1 -23.6000 36.2000 7 50 992 9.90000 2 138
2000099S28037 2000 24 SI MM NOT_NAMED 2000-04-12 21:00:00 SS -23.7425 36.2425 main 74 72 _____P________ -1 -23.7425 36.2425 7 47 994 3 164
2000099S28037 2000 24 SI MM NOT_NAMED 2000-04-13 00:00:00 SS -23.9000 36.3000 45 996 reunion main 81 81 _____O________ -1 -23.9000 36.3000 7 45 996 9.90000 3 144
2000099S28037 2000 24 SI MM NOT_NAMED 2000-04-13 03:00:00 SS -23.9499 36.4126 main 91 91 _____P________ -1 -23.9499 36.4126 7 42 997 3 110
2000099S28037 2000 24 SI MM NOT_NAMED 2000-04-13 06:00:00 SS -24.0000 36.6000 40 999 reunion main 111 111 _____O________ -1 -24.0000 36.6000 7 40 999 9.90000 5 114
2000099S28037 2000 24 SI MM NOT_NAMED 2000-04-13 09:00:00 SS -24.1425 36.8774 main 142 142 _____P________ -1 -24.1425 36.8774 7 40 999 6 119
2000099S28037 2000 24 SI MM NOT_NAMED 2000-04-13 12:00:00 SS -24.3000 37.2000 40 999 reunion main 173 173 _____O________ -1 -24.3000 37.2000 7 40 999 9.90000 6 116
2000099S28037 2000 24 SI MM NOT_NAMED 2000-04-13 15:00:00 SS -24.4073 37.4851 main 205 205 _____P________ -1 -24.4073 37.4851 7 37 1000 6 110
2000099S28037 2000 24 SI MM NOT_NAMED 2000-04-13 18:00:00 SS -24.5000 37.8000 35 1002 reunion main 237 237 _____O________ -1 -24.5000 37.8000 7 35 1002 9.90000 7 108
2000099S28037 2000 24 SI MM NOT_NAMED 2000-04-13 21:00:00 SS -24.6151 38.1999 main 279 279 _____P________ -1 -24.6151 38.1999 7 32 1003 8 105
2000099S28037 2000 24 SI MM NOT_NAMED 2000-04-14 00:00:00 SS -24.7000 38.6000 30 1004 reunion main 320 320 _____O________ -1 -24.7000 38.6000 7 30 1004 9.90000 6 99
2000099S28037 2000 24 SI MM NOT_NAMED 2000-04-14 03:00:00 SS -24.7146 38.8776 main 350 350 _____P________ -1 -24.7146 38.8776 7 30 1004 5 90
2000099S28037 2000 24 SI MM NOT_NAMED 2000-04-14 06:00:00 SS -24.7000 39.2000 30 1004 reunion main 380 380 _____O________ -1 -24.7000 39.2000 7 30 1004 9.90000 8 88
2000099S28037 2000 24 SI MM NOT_NAMED 2000-04-14 09:00:00 SS -24.6931 39.7651 main 400 350 _____P________ -1 -24.6931 39.7651 7 27 1004 10 90
2000099S28037 2000 24 SI MM NOT_NAMED 2000-04-14 12:00:00 SS -24.7000 40.3000 25 1005 reunion main 350 320 _____O________ -1 -24.7000 40.3000 7 25 1005 9.90000 7 94
2000099S28037 2000 24 SI MM NOT_NAMED 2000-04-14 15:00:00 SS -24.7422 40.5750 main 320 313 _____P________ -1 -24.7422 40.5750 7 25 1005 4 105
2000099S28037 2000 24 SI MM NOT_NAMED 2000-04-14 18:00:00 TS -24.8000 40.7000 25 1005 reunion main 313 313 _____O________ -1 -24.8000 40.7000 6 25 1005 9.90000 2 126
2000099S28037 2000 24 SI MM NOT_NAMED 2000-04-14 21:00:00 TS -24.8574 40.7500 main 304 304 _____P________ -1 -24.8574 40.7500 6 22 1006 1 140
2000099S28037 2000 24 SI MM NOT_NAMED 2000-04-15 00:00:00 TS -24.9000 40.8000 20 1007 reunion main 304 284 _____O________ -1 -24.9000 40.8000 6 20 1007 9.90000 2 106
2000099S28037 2000 24 SI MM NOT_NAMED 2000-04-15 03:00:00 TS -24.9150 40.9775 main 284 264 _____P________ -1 -24.9150 40.9775 6 20 1007 4 90
2000099S28037 2000 24 SI MM NOT_NAMED 2000-04-15 06:00:00 TS -24.9000 41.2000 20 1008 reunion main 264 244 _____O________ -1 -24.9000 41.2000 6 20 1008 9.90000 4 82
2000099S28037 2000 24 SI MM NOT_NAMED 2000-04-15 09:00:00 TS -24.8575 41.4075 main 244 223 _____P________ -1 -24.8575 41.4075 6 20 1008 4 75
2000099S28037 2000 24 SI MM NOT_NAMED 2000-04-15 12:00:00 TS -24.8000 41.6000 20 1008 reunion main 223 _____O________ -1 -24.8000 41.6000 6 20 1008 9.90000 4 72

About IBTrACS Database

This database is a web-friendly format of International Best Track Archive for Climate Stewardship (IBTrACS), a global best track data archive curated by NOAA dating back to 1842.

Updated: 2021-10-08